PWSweather.com
Personal Weather Stations
Station Observations
S56IPS
Mostec 12, MostecSI 8257

Mostec 12MostecSI 8257

Lat: 45.899181, Lon: 15.628339

Elevation: 143

Station Type: WX-2008

Latest ConditionsUpdated 2:30:02 PM GMT+01:01 Thursday, Jul 31, 2014
Currently Today's Max Today's Min Today's Average
Temperature 80.2°F26.8°C 83.1°F28.4°C 62.8°F17.1°C 71.2°F21.8°C
Dew Point 72.0°F22.2°C 77.7°F25.4°C 11.6°F-11.3°C 65.4°F18.6°C
Winds 1.6 mph SE2.6 kmh SE 2.2 mph WSW3.5 kmh WSW - 0.3 mph 0.5 kmh
Wind Gusts 6.9 mph11.1 kmh 6.9 mph11.1 kmh - -
Humidity 76% 99% 10% 87%
Pressure 29.74 in1007.1 mb 29.75 in1007.5 mb 29.68 in1005.1 mb -
Precipitation - 0.14 in3.6 mm - -
Hour Temp Dew Point Humidity Winds Wind Gusts Pressure Precip Precip Rate Daily Precip Total
02:30 PM 80.2°F26.8°C 72.0°F22.2°C 76% 1.6 mph SE2.6 kmh SE 6.9 mph11.1 kmh 29.74 in1007.1 mb 0.00 in0.0 mm 0.00 in/hr0.0 mm/hr 0.14 in3.6 mm
02:25 PM 81.5°F27.5°C 72.5°F22.5°C 74% 0.7 mph SE1.1 kmh SE 6.0 mph9.7 kmh 29.74 in1007.1 mb 0.00 in0.0 mm 0.00 in/hr0.0 mm/hr 0.14 in3.6 mm
02:20 PM 83.1°F28.4°C 74.8°F23.8°C 76% 1.6 mph S2.6 kmh S 3.1 mph5.0 kmh 29.74 in1007.1 mb 0.00 in0.0 mm 0.00 in/hr0.0 mm/hr 0.14 in3.6 mm
02:15 PM 82.4°F28.0°C 76.4°F24.7°C 82% 0.7 mph S1.1 kmh S 3.1 mph5.0 kmh 29.74 in1007.1 mb 0.00 in0.0 mm 0.00 in/hr0.0 mm/hr 0.14 in3.6 mm
02:10 PM 80.6°F27.0°C 75.4°F24.1°C 84% 0.7 mph SW1.1 kmh SW 3.1 mph5.0 kmh 29.74 in1007.1 mb 0.00 in0.0 mm 0.00 in/hr0.0 mm/hr 0.14 in3.6 mm
02:05 PM 78.8°F26.0°C 74.0°F23.3°C 85% 1.6 mph WSW2.6 kmh WSW 6.9 mph11.1 kmh 29.74 in1007.1 mb 0.00 in0.0 mm 0.00 in/hr0.0 mm/hr 0.14 in3.6 mm
02:00 PM 78.8°F26.0°C 74.0°F23.3°C 85% 1.6 mph SW2.6 kmh SW 6.9 mph11.1 kmh 29.74 in1007.1 mb 0.00 in0.0 mm 0.00 in/hr0.0 mm/hr 0.14 in3.6 mm
01:55 PM 79.9°F26.6°C 76.7°F24.8°C 90% 0.7 mph S1.1 kmh S 5.4 mph8.7 kmh 29.74 in1007.1 mb 0.04 in1.0 mm 0.00 in/hr0.0 mm/hr 0.14 in3.6 mm
01:50 PM 78.8°F26.0°C 77.0°F25.0°C 94% Calm Calm 3.8 mph6.1 kmh 29.74 in1007.1 mb 0.05 in1.3 mm 0.00 in/hr0.0 mm/hr 0.14 in3.6 mm
01:45 PM 77.9°F25.5°C 77.7°F25.4°C 99% Calm Calm 2.2 mph3.5 kmh 29.74 in1007.1 mb 0.12 in3.0 mm 0.00 in/hr0.0 mm/hr 0.14 in3.6 mm
01:40 PM 76.6°F24.8°C 76.4°F24.7°C 99% Calm Calm 3.1 mph5.0 kmh 29.74 in1007.1 mb 0.13 in3.3 mm 0.00 in/hr0.0 mm/hr 0.14 in3.6 mm
01:35 PM 75.4°F24.1°C 15.1°F-9.4°C 10% Calm Calm 3.1 mph5.0 kmh 29.75 in1007.5 mb 0.14 in3.6 mm 0.00 in/hr0.0 mm/hr 0.14 in3.6 mm
01:30 PM 74.5°F23.6°C 14.4°F-9.8°C 10% 0.7 mph SW1.1 kmh SW 3.1 mph5.0 kmh 29.75 in1007.5 mb 0.14 in3.6 mm 0.00 in/hr0.0 mm/hr 0.14 in3.6 mm
01:25 PM 73.0°F22.8°C 13.3°F-10.4°C 10% Calm Calm 1.6 mph2.6 kmh 29.75 in1007.5 mb 0.14 in3.6 mm 0.00 in/hr0.0 mm/hr 0.14 in3.6 mm
01:20 PM 72.3°F22.4°C 12.7°F-10.7°C 10% Calm Calm 2.2 mph3.5 kmh 29.75 in1007.5 mb 0.14 in3.6 mm 0.00 in/hr0.0 mm/hr 0.14 in3.6 mm
01:15 PM 71.1°F21.7°C 11.8°F-11.2°C 10% Calm Calm 2.2 mph3.5 kmh 29.75 in1007.5 mb 0.14 in3.6 mm 0.00 in/hr0.0 mm/hr 0.14 in3.6 mm
01:10 PM 70.9°F21.6°C 11.6°F-11.3°C 10% 0.7 mph WSW1.1 kmh WSW 2.2 mph3.5 kmh 29.75 in1007.5 mb 0.14 in3.6 mm 0.00 in/hr0.0 mm/hr 0.14 in3.6 mm
01:05 PM 71.4°F21.9°C 12.1°F-11.1°C 10% Calm Calm 1.6 mph2.6 kmh 29.75 in1007.5 mb 0.14 in3.6 mm 0.00 in/hr0.0 mm/hr 0.14 in3.6 mm
01:00 PM 71.4°F21.9°C 12.1°F-11.1°C 10% Calm Calm 3.8 mph6.1 kmh 29.75 in1007.5 mb 0.14 in3.6 mm 0.03 in/hr0.8 mm/hr 0.14 in3.6 mm
12:55 PM 72.5°F22.5°C 71.6°F22.0°C 97% 0.7 mph W1.1 kmh W 3.8 mph6.1 kmh 29.75 in1007.5 mb 0.11 in2.8 mm 0.24 in/hr6.1 mm/hr 0.11 in2.8 mm
12:50 PM 74.5°F23.6°C 72.0°F22.2°C 92% 2.2 mph WSW3.5 kmh WSW 3.8 mph6.1 kmh 29.74 in1007.1 mb 0.09 in2.3 mm 0.84 in/hr21.3 mm/hr 0.09 in2.3 mm
12:45 PM 76.5°F24.7°C 72.4°F22.4°C 87% Calm Calm 4.5 mph7.2 kmh 29.75 in1007.5 mb 0.02 in0.5 mm 0.12 in/hr3.0 mm/hr 0.02 in0.5 mm
12:40 PM 77.9°F25.5°C 72.0°F22.2°C 82% 1.6 mph W2.6 kmh W 4.5 mph7.2 kmh 29.74 in1007.1 mb 0.01 in0.3 mm 0.12 in/hr3.0 mm/hr 0.01 in0.3 mm
12:35 PM 79.9°F26.6°C 71.7°F22.1°C 76% Calm Calm 2.2 mph3.5 kmh 29.74 in1007.1 mb 0.00 in0.0 mm 0.00 in/hr0.0 mm/hr 0.00 in0.0 mm
12:30 PM 81.1°F27.3°C 72.1°F22.3°C 74% Calm Calm 2.2 mph3.5 kmh 29.74 in1007.1 mb 0.00 in0.0 mm 0.00 in/hr0.0 mm/hr 0.00 in0.0 mm
12:25 PM 81.7°F27.6°C 72.6°F22.6°C 74% Calm Calm 2.2 mph3.5 kmh 29.74 in1007.1 mb 0.00 in0.0 mm 0.00 in/hr0.0 mm/hr 0.00 in0.0 mm
12:20 PM 82.0°F27.8°C 73.0°F22.8°C 74% Calm Calm 3.8 mph6.1 kmh 29.74 in1007.1 mb 0.00 in0.0 mm 0.00 in/hr0.0 mm/hr 0.00 in0.0 mm
12:15 PM 82.8°F28.2°C 73.7°F23.2°C 74% 1.6 mph WNW2.6 kmh WNW 3.8 mph6.1 kmh 29.74 in1007.1 mb 0.00 in0.0 mm 0.00 in/hr0.0 mm/hr 0.00 in0.0 mm
12:10 PM 82.4°F28.0°C 74.1°F23.4°C 76% 1.6 mph WNW2.6 kmh WNW 3.8 mph6.1 kmh 29.74 in1007.1 mb 0.00 in0.0 mm 0.00 in/hr0.0 mm/hr 0.00 in0.0 mm
12:05 PM 77.7°F25.4°C 72.2°F22.3°C 83% Calm Calm 1.6 mph2.6 kmh 29.74 in1007.1 mb 0.00 in0.0 mm 0.00 in/hr0.0 mm/hr 0.00 in0.0 mm
12:00 PM 77.7°F25.4°C 72.2°F22.3°C 83% Calm Calm 1.6 mph2.6 kmh 29.74 in1007.1 mb 0.00 in0.0 mm 0.00 in/hr0.0 mm/hr 0.00 in0.0 mm
11:55 AM 77.4°F25.2°C 71.5°F21.9°C 82% Calm Calm 1.6 mph2.6 kmh 29.74 in1007.1 mb 0.00 in0.0 mm 0.00 in/hr0.0 mm/hr 0.00 in0.0 mm
11:50 AM 77.9°F25.5°C 72.0°F22.2°C 82% Calm Calm 1.6 mph2.6 kmh 29.74 in1007.1 mb 0.00 in0.0 mm 0.00 in/hr0.0 mm/hr 0.00 in0.0 mm
11:45 AM 78.3°F25.7°C 71.6°F22.0°C 80% Calm Calm 1.6 mph2.6 kmh 29.74 in1007.1 mb 0.00 in0.0 mm 0.00 in/hr0.0 mm/hr 0.00 in0.0 mm
11:40 AM 78.4°F25.8°C 72.2°F22.3°C 81% Calm Calm 2.2 mph3.5 kmh 29.74 in1007.1 mb 0.00 in0.0 mm 0.00 in/hr0.0 mm/hr 0.00 in0.0 mm
11:35 AM 78.3°F25.7°C 72.0°F22.2°C 81% 0.7 mph WSW1.1 kmh WSW 2.2 mph3.5 kmh 29.74 in1007.1 mb 0.00 in0.0 mm 0.00 in/hr0.0 mm/hr 0.00 in0.0 mm
11:30 AM 78.6°F25.9°C 72.4°F22.4°C 81% Calm Calm 3.1 mph5.0 kmh 29.74 in1007.1 mb 0.00 in0.0 mm 0.00 in/hr0.0 mm/hr 0.00 in0.0 mm
11:25 AM 78.8°F26.0°C 72.2°F22.3°C 80% 0.7 mph WSW1.1 kmh WSW 3.1 mph5.0 kmh 29.74 in1007.1 mb 0.00 in0.0 mm 0.00 in/hr0.0 mm/hr 0.00 in0.0 mm
11:20 AM 79.3°F26.3°C 71.9°F22.2°C 78% Calm Calm 3.8 mph6.1 kmh 29.75 in1007.5 mb 0.00 in0.0 mm 0.00 in/hr0.0 mm/hr 0.00 in0.0 mm
11:15 AM 79.0°F26.1°C 70.4°F21.3°C 75% Calm Calm 3.8 mph6.1 kmh 29.75 in1007.5 mb 0.00 in0.0 mm 0.00 in/hr0.0 mm/hr 0.00 in0.0 mm
11:10 AM 80.6°F27.0°C 71.6°F22.0°C 74% 2.2 mph SE3.5 kmh SE 3.8 mph6.1 kmh 29.75 in1007.5 mb 0.00 in0.0 mm 0.00 in/hr0.0 mm/hr 0.00 in0.0 mm
11:05 AM 81.3°F27.4°C 72.7°F22.6°C 75% Calm Calm 3.8 mph6.1 kmh 29.74 in1007.1 mb 0.00 in0.0 mm 0.00 in/hr0.0 mm/hr 0.00 in0.0 mm
11:00 AM 81.3°F27.4°C 72.7°F22.6°C 75% Calm Calm 3.8 mph6.1 kmh 29.75 in1007.5 mb 0.00 in0.0 mm 0.00 in/hr0.0 mm/hr 0.00 in0.0 mm
10:55 AM 81.0°F27.2°C 72.7°F22.6°C 76% Calm Calm 3.1 mph5.0 kmh 29.74 in1007.1 mb 0.00 in0.0 mm 0.00 in/hr0.0 mm/hr 0.00 in0.0 mm
10:50 AM 80.6°F27.0°C 72.8°F22.7°C 77% Calm Calm 3.1 mph5.0 kmh 29.75 in1007.5 mb 0.00 in0.0 mm 0.00 in/hr0.0 mm/hr 0.00 in0.0 mm
10:45 AM 81.3°F27.4°C 72.7°F22.6°C 75% 0.7 mph WNW1.1 kmh WNW 3.1 mph5.0 kmh 29.74 in1007.1 mb 0.00 in0.0 mm 0.00 in/hr0.0 mm/hr 0.00 in0.0 mm
10:40 AM 81.3°F27.4°C 73.1°F22.8°C 76% 0.7 mph W1.1 kmh W 3.1 mph5.0 kmh 29.74 in1007.1 mb 0.00 in0.0 mm 0.00 in/hr0.0 mm/hr 0.00 in0.0 mm
10:35 AM 80.1°F26.7°C 72.3°F22.4°C 77% Calm Calm 3.1 mph5.0 kmh 29.74 in1007.1 mb 0.00 in0.0 mm 0.00 in/hr0.0 mm/hr 0.00 in0.0 mm
10:30 AM 81.0°F27.2°C 73.1°F22.8°C 77% 0.7 mph W1.1 kmh W 3.1 mph5.0 kmh 29.74 in1007.1 mb 0.00 in0.0 mm 0.00 in/hr0.0 mm/hr 0.00 in0.0 mm
10:25 AM 81.0°F27.2°C 73.9°F23.3°C 79% Calm Calm 3.1 mph5.0 kmh 29.74 in1007.1 mb 0.00 in0.0 mm 0.00 in/hr0.0 mm/hr 0.00 in0.0 mm
10:20 AM 81.0°F27.2°C 73.5°F23.1°C 78% 0.7 mph WSW1.1 kmh WSW 3.1 mph5.0 kmh 29.74 in1007.1 mb 0.00 in0.0 mm 0.00 in/hr0.0 mm/hr 0.00 in0.0 mm
10:15 AM 79.2°F26.2°C 73.2°F22.9°C 82% Calm Calm 2.2 mph3.5 kmh 29.74 in1007.1 mb 0.00 in0.0 mm 0.00 in/hr0.0 mm/hr 0.00 in0.0 mm
10:10 AM 77.9°F25.5°C 72.0°F22.2°C 82% 0.7 mph SW1.1 kmh SW 2.2 mph3.5 kmh 29.74 in1007.1 mb 0.00 in0.0 mm 0.00 in/hr0.0 mm/hr 0.00 in0.0 mm
10:05 AM 77.0°F25.0°C 72.2°F22.3°C 85% 0.7 mph WSW1.1 kmh WSW 3.1 mph5.0 kmh 29.74 in1007.1 mb 0.00 in0.0 mm 0.00 in/hr0.0 mm/hr 0.00 in0.0 mm
10:00 AM 77.0°F25.0°C 72.2°F22.3°C 85% 0.7 mph W1.1 kmh W 3.1 mph5.0 kmh 29.74 in1007.1 mb 0.00 in0.0 mm 0.00 in/hr0.0 mm/hr 0.00 in0.0 mm
09:55 AM 76.3°F24.6°C 72.2°F22.3°C 87% Calm Calm 1.6 mph2.6 kmh 29.74 in1007.1 mb 0.00 in0.0 mm 0.00 in/hr0.0 mm/hr 0.00 in0.0 mm
09:50 AM 75.6°F24.2°C 72.5°F22.5°C 90% Calm Calm 1.6 mph2.6 kmh 29.74 in1007.1 mb 0.00 in0.0 mm 0.00 in/hr0.0 mm/hr 0.00 in0.0 mm
09:45 AM 74.3°F23.5°C 71.5°F21.9°C 91% Calm Calm 1.6 mph2.6 kmh 29.74 in1007.1 mb 0.00 in0.0 mm 0.00 in/hr0.0 mm/hr 0.00 in0.0 mm
09:40 AM 73.4°F23.0°C 71.0°F21.7°C 92% Calm Calm 1.6 mph2.6 kmh 29.74 in1007.1 mb 0.00 in0.0 mm 0.00 in/hr0.0 mm/hr 0.00 in0.0 mm
09:35 AM 73.0°F22.8°C 70.6°F21.4°C 92% Calm Calm 1.6 mph2.6 kmh 29.74 in1007.1 mb 0.00 in0.0 mm 0.00 in/hr0.0 mm/hr 0.00 in0.0 mm
09:30 AM 73.0°F22.8°C 70.9°F21.6°C 93% Calm Calm 1.6 mph2.6 kmh 29.74 in1007.1 mb 0.00 in0.0 mm 0.00 in/hr0.0 mm/hr 0.00 in0.0 mm
09:25 AM 73.0°F22.8°C 70.6°F21.4°C 92% Calm Calm 2.2 mph3.5 kmh 29.74 in1007.1 mb 0.00 in0.0 mm 0.00 in/hr0.0 mm/hr 0.00 in0.0 mm
09:20 AM 73.2°F22.9°C 70.8°F21.6°C 92% Calm Calm 2.2 mph3.5 kmh 29.74 in1007.1 mb 0.00 in0.0 mm 0.00 in/hr0.0 mm/hr 0.00 in0.0 mm
09:15 AM 73.4°F23.0°C 70.7°F21.5°C 91% Calm Calm 3.1 mph5.0 kmh 29.74 in1007.1 mb 0.00 in0.0 mm 0.00 in/hr0.0 mm/hr 0.00 in0.0 mm
09:10 AM 73.4°F23.0°C 70.7°F21.5°C 91% Calm Calm 3.1 mph5.0 kmh 29.74 in1007.1 mb 0.00 in0.0 mm 0.00 in/hr0.0 mm/hr 0.00 in0.0 mm
09:05 AM 74.1°F23.4°C 71.4°F21.9°C 91% 0.7 mph WSW1.1 kmh WSW 3.1 mph5.0 kmh 29.74 in1007.1 mb 0.00 in0.0 mm 0.00 in/hr0.0 mm/hr 0.00 in0.0 mm
09:00 AM 74.1°F23.4°C 72.0°F22.2°C 93% Calm Calm 3.8 mph6.1 kmh 29.74 in1007.1 mb 0.00 in0.0 mm 0.00 in/hr0.0 mm/hr 0.00 in0.0 mm
08:55 AM 73.0°F22.8°C 70.9°F21.6°C 93% 1.6 mph W2.6 kmh W 3.8 mph6.1 kmh 29.74 in1007.1 mb 0.00 in0.0 mm 0.00 in/hr0.0 mm/hr 0.00 in0.0 mm
08:50 AM 72.7°F22.6°C 70.9°F21.6°C 94% 0.7 mph W1.1 kmh W 3.1 mph5.0 kmh 29.73 in1006.8 mb 0.00 in0.0 mm 0.00 in/hr0.0 mm/hr 0.00 in0.0 mm
08:45 AM 72.5°F22.5°C 70.4°F21.3°C 93% 1.6 mph W2.6 kmh W 3.1 mph5.0 kmh 29.74 in1007.1 mb 0.00 in0.0 mm 0.00 in/hr0.0 mm/hr 0.00 in0.0 mm
08:40 AM 72.5°F22.5°C 71.0°F21.7°C 95% Calm Calm 3.1 mph5.0 kmh 29.74 in1007.1 mb 0.00 in0.0 mm 0.00 in/hr0.0 mm/hr 0.00 in0.0 mm
08:35 AM 72.0°F22.2°C 70.5°F21.4°C 95% 0.7 mph WSW1.1 kmh WSW 3.8 mph6.1 kmh 29.73 in1006.8 mb 0.00 in0.0 mm 0.00 in/hr0.0 mm/hr 0.00 in0.0 mm
08:30 AM 71.4°F21.9°C 70.3°F21.3°C 96% 0.7 mph W1.1 kmh W 3.8 mph6.1 kmh 29.73 in1006.8 mb 0.00 in0.0 mm 0.00 in/hr0.0 mm/hr 0.00 in0.0 mm
08:25 AM 71.2°F21.8°C 70.1°F21.2°C 96% 0.7 mph W1.1 kmh W 3.8 mph6.1 kmh 29.73 in1006.8 mb 0.00 in0.0 mm 0.00 in/hr0.0 mm/hr 0.00 in0.0 mm
08:20 AM 71.6°F22.0°C 70.4°F21.3°C 96% 1.6 mph WSW2.6 kmh WSW 3.8 mph6.1 kmh 29.73 in1006.8 mb 0.00 in0.0 mm 0.00 in/hr0.0 mm/hr 0.00 in0.0 mm
08:15 AM 71.8°F22.1°C 70.6°F21.4°C 96% 0.7 mph WSW1.1 kmh WSW 3.8 mph6.1 kmh 29.73 in1006.8 mb 0.00 in0.0 mm 0.00 in/hr0.0 mm/hr 0.00 in0.0 mm
08:10 AM 71.4°F21.9°C 71.2°F21.8°C 99% 0.7 mph W1.1 kmh W 3.1 mph5.0 kmh 29.73 in1006.8 mb 0.00 in0.0 mm 0.00 in/hr0.0 mm/hr 0.00 in0.0 mm
08:05 AM 70.7°F21.5°C 70.1°F21.2°C 98% 1.6 mph WSW2.6 kmh WSW 3.1 mph5.0 kmh 29.73 in1006.8 mb 0.00 in0.0 mm 0.00 in/hr0.0 mm/hr 0.00 in0.0 mm
08:00 AM 70.5°F21.4°C 70.3°F21.3°C 99% 0.7 mph SW1.1 kmh SW 3.8 mph6.1 kmh 29.73 in1006.8 mb 0.00 in0.0 mm 0.00 in/hr0.0 mm/hr 0.00 in0.0 mm
07:55 AM 70.2°F21.2°C 69.9°F21.1°C 99% 0.7 mph WSW1.1 kmh WSW 3.8 mph6.1 kmh 29.73 in1006.8 mb 0.00 in0.0 mm 0.00 in/hr0.0 mm/hr 0.00 in0.0 mm
07:50 AM 70.0°F21.1°C 69.7°F20.9°C 99% 0.7 mph WSW1.1 kmh WSW 3.1 mph5.0 kmh 29.73 in1006.8 mb 0.00 in0.0 mm 0.00 in/hr0.0 mm/hr 0.00 in0.0 mm
07:45 AM 69.8°F21.0°C 69.5°F20.8°C 99% Calm Calm 3.8 mph6.1 kmh 29.73 in1006.8 mb 0.00 in0.0 mm 0.00 in/hr0.0 mm/hr 0.00 in0.0 mm
07:40 AM 70.0°F21.1°C 69.4°F20.8°C 98% 0.7 mph WSW1.1 kmh WSW 3.8 mph6.1 kmh 29.73 in1006.8 mb 0.00 in0.0 mm 0.00 in/hr0.0 mm/hr 0.00 in0.0 mm
07:35 AM 70.3°F21.3°C 70.1°F21.2°C 99% Calm Calm 3.1 mph5.0 kmh 29.73 in1006.8 mb 0.00 in0.0 mm 0.00 in/hr0.0 mm/hr 0.00 in0.0 mm
07:30 AM 70.2°F21.2°C 69.6°F20.9°C 98% 0.7 mph W1.1 kmh W 3.1 mph5.0 kmh 29.72 in1006.4 mb 0.00 in0.0 mm 0.00 in/hr0.0 mm/hr 0.00 in0.0 mm
07:25 AM 70.5°F21.4°C 69.7°F20.9°C 97% 0.7 mph W1.1 kmh W 3.1 mph5.0 kmh 29.72 in1006.4 mb 0.00 in0.0 mm 0.00 in/hr0.0 mm/hr 0.00 in0.0 mm
07:24 AM 62.8°F17.1°C 62.5°F16.9°C 99% 0.7 mph W1.1 kmh W 1.6 mph2.6 kmh 29.70 in1005.8 mb 0.00 in0.0 mm 0.00 in/hr0.0 mm/hr 0.00 in0.0 mm
07:10 AM 71.2°F21.8°C 70.9°F21.6°C 99% 1.6 mph NW2.6 kmh NW 3.1 mph5.0 kmh 29.72 in1006.4 mb 0.00 in0.0 mm 0.00 in/hr0.0 mm/hr 0.00 in0.0 mm
04:15 AM 62.8°F17.1°C 62.5°F16.9°C 99% Calm Calm 1.6 mph2.6 kmh 29.70 in1005.8 mb 0.00 in0.0 mm 0.00 in/hr0.0 mm/hr 0.00 in0.0 mm
04:10 AM 62.8°F17.1°C 62.5°F16.9°C 99% Calm Calm 1.6 mph2.6 kmh 29.70 in1005.8 mb 0.00 in0.0 mm 0.00 in/hr0.0 mm/hr 0.00 in0.0 mm
04:05 AM 63.0°F17.2°C 62.7°F17.1°C 99% Calm Calm 0.7 mph1.1 kmh 29.69 in1005.4 mb 0.00 in0.0 mm 0.00 in/hr0.0 mm/hr 0.00 in0.0 mm
04:00 AM 63.0°F17.2°C 62.7°F17.1°C 99% Calm Calm 1.6 mph2.6 kmh 29.70 in1005.8 mb 0.00 in0.0 mm 0.00 in/hr0.0 mm/hr 0.00 in0.0 mm
03:55 AM 63.0°F17.2°C 62.7°F17.1°C 99% Calm Calm 1.6 mph2.6 kmh 29.70 in1005.8 mb 0.00 in0.0 mm 0.00 in/hr0.0 mm/hr 0.00 in0.0 mm
03:50 AM 63.1°F17.3°C 62.9°F17.2°C 99% Calm Calm 1.6 mph2.6 kmh 29.69 in1005.4 mb 0.00 in0.0 mm 0.00 in/hr0.0 mm/hr 0.00 in0.0 mm
03:45 AM 63.1°F17.3°C 62.9°F17.2°C 99% Calm Calm 1.6 mph2.6 kmh 29.70 in1005.8 mb 0.00 in0.0 mm 0.00 in/hr0.0 mm/hr 0.00 in0.0 mm
03:40 AM 63.3°F17.4°C 63.1°F17.3°C 99% Calm Calm -- 29.70 in1005.8 mb 0.00 in0.0 mm 0.00 in/hr0.0 mm/hr 0.00 in0.0 mm
03:35 AM 63.3°F17.4°C 63.1°F17.3°C 99% Calm Calm 0.7 mph1.1 kmh 29.70 in1005.8 mb 0.00 in0.0 mm 0.00 in/hr0.0 mm/hr 0.00 in0.0 mm
03:30 AM 63.3°F17.4°C 63.1°F17.3°C 99% Calm Calm 0.7 mph1.1 kmh 29.69 in1005.4 mb 0.00 in0.0 mm 0.00 in/hr0.0 mm/hr 0.00 in0.0 mm
03:25 AM 63.3°F17.4°C 63.1°F17.3°C 99% Calm Calm 1.6 mph2.6 kmh 29.68 in1005.1 mb 0.00 in0.0 mm 0.00 in/hr0.0 mm/hr 0.00 in0.0 mm
03:20 AM 63.3°F17.4°C 63.1°F17.3°C 99% Calm Calm 1.6 mph2.6 kmh 29.69 in1005.4 mb 0.00 in0.0 mm 0.00 in/hr0.0 mm/hr 0.00 in0.0 mm
03:15 AM 63.5°F17.5°C 63.2°F17.3°C 99% Calm Calm 1.6 mph2.6 kmh 29.69 in1005.4 mb 0.00 in0.0 mm 0.00 in/hr0.0 mm/hr 0.00 in0.0 mm
03:10 AM 63.5°F17.5°C 63.2°F17.3°C 99% Calm Calm 0.7 mph1.1 kmh 29.69 in1005.4 mb 0.00 in0.0 mm 0.00 in/hr0.0 mm/hr 0.00 in0.0 mm
03:05 AM 63.7°F17.6°C 63.4°F17.4°C 99% Calm Calm 0.7 mph1.1 kmh 29.69 in1005.4 mb 0.00 in0.0 mm 0.00 in/hr0.0 mm/hr 0.00 in0.0 mm
03:00 AM 63.7°F17.6°C 63.4°F17.4°C 99% Calm Calm 0.7 mph1.1 kmh 29.69 in1005.4 mb 0.00 in0.0 mm 0.00 in/hr0.0 mm/hr 0.00 in0.0 mm
02:55 AM 63.7°F17.6°C 63.4°F17.4°C 99% Calm Calm 0.7 mph1.1 kmh 29.69 in1005.4 mb 0.00 in0.0 mm 0.00 in/hr0.0 mm/hr 0.00 in0.0 mm
02:50 AM 63.9°F17.7°C 63.6°F17.6°C 99% Calm Calm 1.6 mph2.6 kmh 29.69 in1005.4 mb 0.00 in0.0 mm 0.00 in/hr0.0 mm/hr 0.00 in0.0 mm
02:45 AM 63.9°F17.7°C 63.6°F17.6°C 99% Calm Calm 1.6 mph2.6 kmh 29.69 in1005.4 mb 0.00 in0.0 mm 0.00 in/hr0.0 mm/hr 0.00 in0.0 mm
02:40 AM 63.9°F17.7°C 63.6°F17.6°C 99% Calm Calm 1.6 mph2.6 kmh 29.69 in1005.4 mb 0.00 in0.0 mm 0.00 in/hr0.0 mm/hr 0.00 in0.0 mm
02:35 AM 63.9°F17.7°C 63.6°F17.6°C 99% Calm Calm 1.6 mph2.6 kmh 29.69 in1005.4 mb 0.00 in0.0 mm 0.00 in/hr0.0 mm/hr 0.00 in0.0 mm
02:30 AM 63.9°F17.7°C 63.6°F17.6°C 99% Calm Calm 1.6 mph2.6 kmh 29.69 in1005.4 mb 0.00 in0.0 mm 0.00 in/hr0.0 mm/hr 0.00 in0.0 mm
02:25 AM 63.9°F17.7°C 63.6°F17.6°C 99% Calm Calm 1.6 mph2.6 kmh 29.69 in1005.4 mb 0.00 in0.0 mm 0.00 in/hr0.0 mm/hr 0.00 in0.0 mm
02:20 AM 63.9°F17.7°C 63.6°F17.6°C 99% Calm Calm 1.6 mph2.6 kmh 29.69 in1005.4 mb 0.00 in0.0 mm 0.00 in/hr0.0 mm/hr 0.00 in0.0 mm
02:15 AM 63.9°F17.7°C 63.6°F17.6°C 99% 0.7 mph W1.1 kmh W 1.6 mph2.6 kmh 29.69 in1005.4 mb 0.00 in0.0 mm 0.00 in/hr0.0 mm/hr 0.00 in0.0 mm
02:10 AM 63.9°F17.7°C 63.6°F17.6°C 99% Calm Calm 1.6 mph2.6 kmh 29.69 in1005.4 mb 0.00 in0.0 mm 0.00 in/hr0.0 mm/hr 0.00 in0.0 mm
02:05 AM 63.9°F17.7°C 63.6°F17.6°C 99% Calm Calm 1.6 mph2.6 kmh 29.69 in1005.4 mb 0.00 in0.0 mm 0.00 in/hr0.0 mm/hr 0.00 in0.0 mm
02:00 AM 63.9°F17.7°C 63.6°F17.6°C 99% Calm Calm 1.6 mph2.6 kmh 29.69 in1005.4 mb 0.00 in0.0 mm 0.00 in/hr0.0 mm/hr 0.00 in0.0 mm
01:55 AM 64.0°F17.8°C 63.8°F17.7°C 99% Calm Calm 2.2 mph3.5 kmh 29.69 in1005.4 mb 0.00 in0.0 mm 0.00 in/hr0.0 mm/hr 0.00 in0.0 mm
01:50 AM 64.0°F17.8°C 63.8°F17.7°C 99% Calm Calm 2.2 mph3.5 kmh 29.69 in1005.4 mb 0.00 in0.0 mm 0.00 in/hr0.0 mm/hr 0.00 in0.0 mm
01:45 AM 64.0°F17.8°C 63.8°F17.7°C 99% 0.7 mph W1.1 kmh W 2.2 mph3.5 kmh 29.68 in1005.1 mb 0.00 in0.0 mm 0.00 in/hr0.0 mm/hr 0.00 in0.0 mm
01:40 AM 64.0°F17.8°C 63.8°F17.7°C 99% Calm Calm 1.6 mph2.6 kmh 29.68 in1005.1 mb 0.00 in0.0 mm 0.00 in/hr0.0 mm/hr 0.00 in0.0 mm
01:35 AM 64.2°F17.9°C 64.0°F17.8°C 99% Calm Calm 0.7 mph1.1 kmh 29.69 in1005.4 mb 0.00 in0.0 mm 0.00 in/hr0.0 mm/hr 0.00 in0.0 mm
01:30 AM 64.2°F17.9°C 64.0°F17.8°C 99% Calm Calm 1.6 mph2.6 kmh 29.69 in1005.4 mb 0.00 in0.0 mm 0.00 in/hr0.0 mm/hr 0.00 in0.0 mm
01:25 AM 64.2°F17.9°C 64.0°F17.8°C 99% Calm Calm 1.6 mph2.6 kmh 29.69 in1005.4 mb 0.00 in0.0 mm 0.00 in/hr0.0 mm/hr 0.00 in0.0 mm
01:20 AM 64.0°F17.8°C 63.8°F17.7°C 99% Calm Calm 1.6 mph2.6 kmh 29.69 in1005.4 mb 0.00 in0.0 mm 0.00 in/hr0.0 mm/hr 0.00 in0.0 mm
01:15 AM 64.0°F17.8°C 63.8°F17.7°C 99% Calm Calm 2.2 mph3.5 kmh 29.69 in1005.4 mb 0.00 in0.0 mm 0.00 in/hr0.0 mm/hr 0.00 in0.0 mm
01:10 AM 64.0°F17.8°C 63.8°F17.7°C 99% Calm Calm 2.2 mph3.5 kmh 29.69 in1005.4 mb 0.00 in0.0 mm 0.00 in/hr0.0 mm/hr 0.00 in0.0 mm
01:05 AM 63.9°F17.7°C 63.6°F17.6°C 99% Calm Calm 1.6 mph2.6 kmh 29.69 in1005.4 mb 0.00 in0.0 mm 0.00 in/hr0.0 mm/hr 0.00 in0.0 mm
01:00 AM 64.0°F17.8°C 63.8°F17.7°C 99% Calm Calm 1.6 mph2.6 kmh 29.68 in1005.1 mb 0.00 in0.0 mm 0.00 in/hr0.0 mm/hr 0.00 in0.0 mm
12:55 AM 64.0°F17.8°C 63.8°F17.7°C 99% Calm Calm 0.7 mph1.1 kmh 29.69 in1005.4 mb 0.00 in0.0 mm 0.00 in/hr0.0 mm/hr 0.00 in0.0 mm
12:50 AM 64.0°F17.8°C 63.8°F17.7°C 99% Calm Calm 2.2 mph3.5 kmh 29.69 in1005.4 mb 0.00 in0.0 mm 0.00 in/hr0.0 mm/hr 0.00 in0.0 mm
12:45 AM 64.0°F17.8°C 63.8°F17.7°C 99% Calm Calm 2.2 mph3.5 kmh 29.69 in1005.4 mb 0.00 in0.0 mm 0.00 in/hr0.0 mm/hr 0.00 in0.0 mm
12:40 AM 64.0°F17.8°C 63.8°F17.7°C 99% Calm Calm 1.6 mph2.6 kmh 29.69 in1005.4 mb 0.00 in0.0 mm 0.00 in/hr0.0 mm/hr 0.00 in0.0 mm
12:35 AM 64.0°F17.8°C 63.8°F17.7°C 99% Calm Calm 1.6 mph2.6 kmh 29.69 in1005.4 mb 0.00 in0.0 mm 0.00 in/hr0.0 mm/hr 0.00 in0.0 mm
12:30 AM 64.0°F17.8°C 63.8°F17.7°C 99% Calm Calm 1.6 mph2.6 kmh 29.69 in1005.4 mb 0.00 in0.0 mm 0.00 in/hr0.0 mm/hr 0.00 in0.0 mm
12:25 AM 63.9°F17.7°C 63.6°F17.6°C 99% Calm Calm 0.7 mph1.1 kmh 29.70 in1005.8 mb 0.00 in0.0 mm 0.00 in/hr0.0 mm/hr 0.00 in0.0 mm
12:20 AM 63.9°F17.7°C 63.6°F17.6°C 99% Calm Calm 0.7 mph1.1 kmh 29.70 in1005.8 mb 0.00 in0.0 mm 0.00 in/hr0.0 mm/hr 0.00 in0.0 mm
12:15 AM 63.9°F17.7°C 63.6°F17.6°C 99% Calm Calm 1.6 mph2.6 kmh 29.69 in1005.4 mb 0.00 in0.0 mm 0.00 in/hr0.0 mm/hr 0.00 in0.0 mm
12:10 AM 63.9°F17.7°C 63.6°F17.6°C 99% Calm Calm 1.6 mph2.6 kmh 29.69 in1005.4 mb 0.00 in0.0 mm 0.00 in/hr0.0 mm/hr 0.00 in0.0 mm
12:05 AM 63.7°F17.6°C 63.4°F17.4°C 99% Calm Calm 0.7 mph1.1 kmh 29.69 in1005.4 mb 0.00 in0.0 mm 0.00 in/hr0.0 mm/hr 0.00 in0.0 mm
12:00 AM 63.7°F17.6°C 63.4°F17.4°C 99% Calm Calm 1.6 mph2.6 kmh 29.69 in1005.4 mb 0.00 in0.0 mm 0.00 in/hr0.0 mm/hr 0.00 in0.0 mm